createdAt,value
2023-03-17T00:00:49.432Z,10.50
2023-03-17T00:03:26.939Z,10.50
2023-03-17T00:05:54.943Z,10.50
2023-03-17T00:08:28.360Z,10.50
2023-03-17T00:10:56.212Z,10.50
2023-03-17T00:13:23.928Z,10.40
2023-03-17T00:15:58.806Z,10.40
2023-03-17T00:18:25.857Z,10.40
2023-03-17T00:20:53.465Z,10.30
2023-03-17T00:23:25.327Z,10.30
2023-03-17T00:25:54.062Z,10.20
2023-03-17T00:28:25.452Z,10.20
2023-03-17T00:31:01.559Z,10.20
2023-03-17T00:33:32.977Z,10.10
2023-03-17T00:36:01.204Z,10.10
2023-03-17T00:38:28.071Z,10.10
2023-03-17T00:40:55.150Z,10.00
2023-03-17T00:43:21.847Z,10.00
2023-03-17T00:45:49.387Z,10.00
2023-03-17T00:48:21.654Z,9.90
2023-03-17T00:50:50.462Z,9.90
2023-03-17T00:53:23.180Z,9.80
2023-03-17T00:55:50.124Z,9.80
2023-03-17T00:58:28.698Z,9.80
2023-03-17T01:00:56.585Z,9.70
2023-03-17T01:03:23.876Z,9.70
2023-03-17T01:05:54.113Z,9.70
2023-03-17T01:08:23.632Z,9.80
2023-03-17T01:10:50.368Z,9.70
2023-03-17T01:13:17.168Z,9.60
2023-03-17T01:15:50.333Z,9.60
2023-03-17T01:18:21.246Z,9.60
2023-03-17T01:20:48.509Z,9.60
2023-03-17T01:23:15.526Z,9.50
2023-03-17T01:25:44.544Z,9.50
2023-03-17T01:28:18.389Z,9.50
2023-03-17T01:30:46.923Z,9.50
2023-03-17T01:33:14.565Z,9.50
2023-03-17T01:35:43.875Z,9.50
2023-03-17T01:38:11.485Z,9.50
2023-03-17T01:40:49.405Z,9.50
2023-03-17T01:43:24.694Z,9.50
2023-03-17T01:46:30.265Z,9.40
2023-03-17T01:49:19.270Z,9.40
2023-03-17T01:51:58.875Z,9.40
2023-03-17T01:54:39.948Z,9.30
2023-03-17T01:57:21.331Z,9.30
2023-03-17T01:59:57.545Z,9.20
2023-03-17T02:02:30.843Z,9.20
2023-03-17T02:04:58.840Z,9.20
2023-03-17T02:07:27.479Z,9.20
2023-03-17T02:09:56.976Z,9.20
2023-03-17T02:12:25.357Z,9.20
2023-03-17T02:14:53.200Z,9.10
2023-03-17T02:17:22.884Z,9.10
2023-03-17T02:19:50.379Z,9.10
2023-03-17T02:22:19.599Z,9.10
2023-03-17T02:24:53.177Z,9.10
2023-03-17T02:27:41.786Z,9.10
2023-03-17T02:30:14.970Z,9.10
2023-03-17T02:32:42.002Z,9.00
2023-03-17T02:35:09.534Z,9.00
2023-03-17T02:37:36.486Z,9.00
2023-03-17T02:40:05.753Z,9.00
2023-03-17T02:42:35.682Z,9.00
2023-03-17T02:45:02.619Z,9.00
2023-03-17T02:47:29.371Z,9.10
2023-03-17T02:49:56.662Z,9.00
2023-03-17T02:52:23.370Z,9.00
2023-03-17T02:54:50.179Z,9.00
2023-03-17T02:57:17.245Z,9.00
2023-03-17T02:59:44.136Z,9.00
2023-03-17T03:02:11.559Z,9.00
2023-03-17T03:04:38.345Z,9.00
2023-03-17T03:07:05.606Z,9.60
2023-03-17T03:09:32.360Z,9.00
2023-03-17T03:11:59.114Z,9.10
2023-03-17T03:14:25.970Z,9.10
2023-03-17T03:16:52.690Z,9.10
2023-03-17T03:19:19.429Z,9.10
2023-03-17T03:21:46.318Z,9.00
2023-03-17T03:24:13.217Z,9.00
2023-03-17T03:26:39.955Z,9.00
2023-03-17T03:29:06.788Z,9.00
2023-03-17T03:31:33.727Z,9.00
2023-03-17T03:34:00.874Z,9.00
2023-03-17T03:36:27.711Z,9.00
2023-03-17T03:38:54.489Z,8.90
2023-03-17T03:41:21.325Z,8.90
2023-03-17T03:43:48.175Z,8.90
2023-03-17T03:46:15.664Z,8.90
2023-03-17T03:48:42.532Z,8.90
2023-03-17T03:51:09.243Z,8.90
2023-03-17T03:53:36.079Z,8.90
2023-03-17T03:56:02.890Z,8.90
2023-03-17T03:58:29.666Z,8.90
2023-03-17T04:00:56.888Z,8.90
2023-03-17T04:03:23.766Z,8.90
2023-03-17T04:05:50.537Z,8.90
2023-03-17T04:08:17.336Z,8.90
2023-03-17T04:10:44.506Z,8.90
2023-03-17T04:13:11.259Z,8.80
2023-03-17T04:15:38.036Z,8.80
2023-03-17T04:18:05.263Z,8.80
2023-03-17T04:20:32.540Z,8.70
2023-03-17T04:22:59.469Z,8.70
2023-03-17T04:25:26.290Z,8.60
2023-03-17T04:27:53.028Z,8.60
2023-03-17T04:30:19.950Z,8.50
2023-03-17T04:32:46.821Z,8.50
2023-03-17T04:35:20.736Z,8.40
2023-03-17T04:37:48.470Z,8.40
2023-03-17T04:40:17.014Z,8.30
2023-03-17T04:42:43.795Z,8.30
2023-03-17T04:45:15.450Z,8.20
2023-03-17T04:47:42.570Z,8.20
2023-03-17T04:50:10.633Z,8.20
2023-03-17T04:52:37.858Z,8.20
2023-03-17T04:55:08.220Z,8.20
2023-03-17T04:57:36.053Z,8.30
2023-03-17T05:00:07.197Z,8.30
2023-03-17T05:02:34.181Z,8.30
2023-03-17T05:05:01.105Z,8.40
2023-03-17T05:07:27.838Z,8.40
2023-03-17T05:09:54.556Z,8.40
2023-03-17T05:12:21.299Z,8.40
2023-03-17T05:14:48.126Z,8.50
2023-03-17T05:17:15.230Z,8.40
2023-03-17T05:19:42.447Z,8.50
2023-03-17T05:22:09.205Z,8.50
2023-03-17T05:24:36.133Z,8.50
2023-03-17T05:27:02.957Z,8.50
2023-03-17T05:29:30.098Z,8.50
2023-03-17T05:31:56.888Z,8.50
2023-03-17T05:34:23.626Z,8.50
2023-03-17T05:36:50.468Z,8.50
2023-03-17T05:39:17.488Z,8.50
2023-03-17T05:41:44.285Z,8.50
2023-03-17T05:44:11.006Z,8.60
2023-03-17T05:46:37.732Z,8.60
2023-03-17T05:49:04.914Z,8.60
2023-03-17T05:51:32.141Z,8.60
2023-03-17T05:53:59.615Z,8.60
2023-03-17T05:56:33.365Z,8.70
2023-03-17T05:59:03.771Z,8.70
2023-03-17T06:01:31.621Z,8.70
2023-03-17T06:03:58.773Z,8.70
2023-03-17T06:06:25.867Z,8.70
2023-03-17T06:08:53.122Z,8.80
2023-03-17T06:11:21.552Z,8.80
2023-03-17T06:13:49.161Z,8.80
2023-03-17T06:16:16.597Z,8.90
2023-03-17T06:18:45.974Z,8.90
2023-03-17T06:21:14.021Z,8.90
2023-03-17T06:23:41.238Z,9.00
2023-03-17T06:26:08.984Z,9.00
2023-03-17T06:28:35.878Z,9.00
2023-03-17T06:31:04.632Z,9.10
2023-03-17T06:33:32.693Z,9.10
2023-03-17T06:36:00.587Z,9.10
2023-03-17T06:38:28.198Z,9.10
2023-03-17T06:40:55.209Z,9.20
2023-03-17T06:43:24.690Z,9.20
2023-03-17T06:45:52.526Z,9.30
2023-03-17T06:48:20.163Z,9.30
2023-03-17T06:50:50.257Z,9.40
2023-03-17T06:53:17.533Z,9.50
2023-03-17T06:55:45.147Z,9.50
2023-03-17T06:58:13.566Z,9.60
2023-03-17T07:00:40.497Z,9.70
2023-03-17T07:03:07.876Z,9.80
2023-03-17T07:05:35.071Z,10.00
2023-03-17T07:08:01.999Z,10.10
2023-03-17T07:10:30.272Z,10.30
2023-03-17T07:12:59.065Z,10.50
2023-03-17T07:15:27.049Z,10.70
2023-03-17T07:17:54.849Z,11.00
2023-03-17T07:20:23.473Z,11.30
2023-03-17T07:22:52.177Z,11.60
2023-03-17T07:25:20.209Z,11.90
2023-03-17T07:27:48.091Z,12.30
2023-03-17T07:30:19.784Z,12.60
2023-03-17T07:32:49.520Z,13.00
2023-03-17T07:35:18.189Z,13.30
2023-03-17T07:37:47.879Z,13.60
2023-03-17T07:40:15.775Z,13.90
2023-03-17T07:42:43.863Z,14.20
2023-03-17T07:45:14.118Z,14.30
2023-03-17T07:47:44.862Z,14.60
2023-03-17T07:50:13.094Z,14.70
2023-03-17T07:52:42.376Z,14.80
2023-03-17T07:55:13.379Z,14.90
2023-03-17T07:57:42.115Z,15.00
2023-03-17T08:00:15.045Z,15.10
2023-03-17T08:02:44.895Z,15.10
2023-03-17T08:05:15.811Z,15.30
2023-03-17T08:07:44.262Z,15.40
2023-03-17T08:10:15.886Z,15.50
2023-03-17T08:12:43.853Z,15.70
2023-03-17T08:15:12.096Z,15.90
2023-03-17T08:17:40.541Z,16.10
2023-03-17T08:20:09.985Z,16.30
2023-03-17T08:22:39.757Z,16.50
2023-03-17T08:25:09.909Z,16.60
2023-03-17T08:27:37.750Z,16.70
2023-03-17T08:30:06.495Z,16.90
2023-03-17T08:32:34.084Z,17.00
2023-03-17T08:35:01.671Z,17.10
2023-03-17T08:37:29.399Z,17.20
2023-03-17T08:40:01.526Z,17.40
2023-03-17T08:42:32.620Z,17.60
2023-03-17T08:45:00.164Z,17.70
2023-03-17T08:47:35.313Z,17.90
2023-03-17T08:50:05.463Z,18.10
2023-03-17T08:52:33.046Z,18.40
2023-03-17T08:55:01.109Z,18.70
2023-03-17T08:57:29.225Z,19.00
2023-03-17T08:59:57.062Z,19.30
2023-03-17T09:02:24.799Z,19.70
2023-03-17T09:04:53.208Z,20.00
2023-03-17T09:07:20.370Z,20.20
2023-03-17T09:09:47.667Z,20.40
2023-03-17T09:12:14.513Z,20.50
2023-03-17T09:21:58.135Z,20.80
2023-03-17T09:24:25.598Z,20.90
2023-03-17T09:26:53.035Z,21.00
2023-03-17T09:29:20.484Z,21.20
2023-03-17T09:31:50.825Z,21.40
2023-03-17T09:34:18.642Z,21.60
2023-03-17T09:36:45.613Z,21.80
2023-03-17T09:39:12.622Z,21.90
2023-03-17T09:42:00.967Z,22.10
2023-03-17T09:44:51.097Z,22.10
2023-03-17T09:47:42.951Z,22.10
2023-03-17T09:50:19.216Z,22.20
2023-03-17T09:52:46.091Z,22.20
2023-03-17T09:55:24.977Z,22.30
2023-03-17T09:57:54.758Z,22.30
2023-03-17T10:00:29.356Z,22.20
2023-03-17T10:03:08.031Z,22.40
2023-03-17T10:06:52.943Z,22.40
2023-03-17T10:09:44.092Z,22.50
2023-03-17T10:12:26.203Z,22.60
2023-03-17T10:15:02.635Z,22.70
2023-03-17T10:17:35.620Z,22.90
2023-03-17T10:20:17.430Z,23.20
2023-03-17T10:22:53.105Z,23.50
2023-03-17T10:25:29.504Z,23.90
2023-03-17T10:28:06.994Z,24.30
2023-03-17T10:30:35.475Z,24.70
2023-03-17T10:33:07.232Z,25.30
2023-03-17T10:35:36.622Z,25.70
2023-03-17T10:38:19.549Z,26.20
2023-03-17T10:41:03.579Z,26.60
2023-03-17T10:43:39.719Z,27.00
2023-03-17T10:46:18.908Z,27.30
2023-03-17T10:49:11.803Z,27.60
2023-03-17T10:51:40.588Z,27.90
2023-03-17T10:54:17.861Z,28.10
2023-03-17T10:56:50.052Z,28.30
2023-03-17T10:59:37.507Z,28.50
2023-03-17T11:02:25.700Z,28.60
2023-03-17T11:05:22.947Z,28.70
2023-03-17T11:07:56.859Z,28.70
2023-03-17T11:10:27.956Z,28.70
2023-03-17T11:13:02.704Z,28.60
2023-03-17T11:15:40.480Z,28.60
2023-03-17T11:18:27.033Z,28.70
2023-03-17T11:21:09.951Z,28.70
2023-03-17T11:23:53.438Z,28.70
2023-03-17T11:26:57.526Z,28.60
2023-03-17T11:29:36.579Z,28.60
2023-03-17T11:32:28.238Z,28.50
2023-03-17T11:35:46.698Z,28.40
2023-03-17T11:38:30.983Z,28.30
2023-03-17T11:41:21.893Z,28.00
2023-03-17T11:44:28.894Z,27.80
2023-03-17T11:47:21.879Z,27.50
2023-03-17T11:50:23.536Z,27.20
2023-03-17T11:53:22.023Z,26.80
2023-03-17T11:56:04.223Z,26.50
2023-03-17T11:58:45.516Z,26.30
2023-03-17T12:01:27.182Z,26.00
2023-03-17T12:05:05.864Z,25.80
2023-03-17T12:07:55.248Z,25.60
2023-03-17T12:10:54.770Z,25.50
2023-03-17T12:13:43.578Z,25.30
2023-03-17T12:16:23.063Z,25.10
2023-03-17T12:19:33.529Z,25.10
2023-03-17T12:22:17.119Z,25.00
2023-03-17T12:25:12.856Z,24.90
2023-03-17T12:27:53.997Z,24.80
2023-03-17T12:30:33.605Z,24.70
2023-03-17T12:33:20.395Z,24.70
2023-03-17T12:35:48.252Z,24.70
2023-03-17T12:38:35.989Z,24.70
2023-03-17T12:42:00.033Z,24.70
2023-03-17T12:44:43.770Z,24.70
2023-03-17T12:48:04.830Z,24.90
2023-03-17T12:51:06.951Z,24.90
2023-03-17T12:53:37.876Z,25.00
2023-03-17T12:56:26.436Z,25.10
2023-03-17T12:59:19.018Z,25.20
2023-03-17T13:02:11.080Z,25.20
2023-03-17T13:04:39.055Z,25.30
2023-03-17T13:07:23.711Z,25.30
2023-03-17T13:10:13.798Z,25.30
2023-03-17T13:12:45.245Z,25.40
2023-03-17T13:15:47.177Z,25.40
2023-03-17T13:18:17.380Z,25.50
2023-03-17T13:20:56.798Z,25.50
2023-03-17T13:23:47.474Z,25.50
2023-03-17T13:26:42.775Z,25.40
2023-03-17T13:29:38.716Z,25.40
2023-03-17T13:32:27.140Z,25.40
2023-03-17T13:35:15.924Z,25.40
2023-03-17T13:38:03.147Z,25.40
2023-03-17T13:40:59.380Z,25.40
2023-03-17T13:44:26.689Z,25.40
2023-03-17T13:46:54.792Z,25.40
2023-03-17T13:49:32.278Z,25.40
2023-03-17T13:52:17.787Z,25.40
2023-03-17T13:54:59.869Z,25.50
2023-03-17T13:57:39.522Z,25.50
2023-03-17T14:00:26.440Z,25.60
2023-03-17T14:03:13.375Z,25.70
2023-03-17T14:05:43.003Z,25.70
2023-03-17T14:08:38.610Z,25.70
2023-03-17T14:11:26.763Z,25.80
2023-03-17T14:13:59.954Z,25.80
2023-03-17T14:16:54.164Z,25.70
2023-03-17T14:19:29.800Z,25.70
2023-03-17T14:22:18.255Z,25.70
2023-03-17T14:24:46.522Z,25.70
2023-03-17T14:27:15.628Z,25.60
2023-03-17T14:29:43.567Z,25.60
2023-03-17T14:32:18.805Z,25.50
2023-03-17T14:34:59.002Z,25.50
2023-03-17T14:37:28.489Z,25.40
2023-03-17T14:39:58.074Z,25.40
2023-03-17T14:42:31.507Z,25.30
2023-03-17T14:45:27.061Z,25.20
2023-03-17T14:47:54.899Z,25.00
2023-03-17T14:50:31.919Z,24.90
2023-03-17T14:53:02.494Z,24.70
2023-03-17T14:55:43.609Z,24.60
2023-03-17T14:58:25.343Z,24.30
2023-03-17T15:01:08.414Z,24.20
2023-03-17T15:03:40.955Z,24.00
2023-03-17T15:06:29.996Z,23.70
2023-03-17T15:09:04.532Z,23.50
2023-03-17T15:11:44.123Z,23.30
2023-03-17T15:14:31.902Z,23.20
2023-03-17T15:17:02.709Z,23.00
2023-03-17T15:19:41.327Z,22.80
2023-03-17T15:22:41.410Z,22.50
2023-03-17T15:25:33.820Z,22.30
2023-03-17T15:28:00.927Z,22.00
2023-03-17T15:30:37.422Z,21.80
2023-03-17T15:33:28.337Z,21.60
2023-03-17T15:35:57.239Z,21.40
2023-03-17T15:38:25.145Z,21.30
2023-03-17T15:40:52.961Z,21.10
2023-03-17T15:43:22.232Z,20.90
2023-03-17T15:46:04.436Z,20.80
2023-03-17T15:48:39.236Z,20.60
2023-03-17T15:51:08.007Z,20.50
2023-03-17T15:53:35.955Z,20.40
2023-03-17T15:56:04.160Z,20.20
2023-03-17T15:58:31.715Z,20.10
2023-03-17T16:00:59.941Z,20.00
2023-03-17T16:03:35.054Z,19.90
2023-03-17T16:06:05.712Z,19.80
2023-03-17T16:08:34.024Z,19.80
2023-03-17T16:11:01.677Z,19.60
2023-03-17T16:13:29.591Z,19.60
2023-03-17T16:16:01.385Z,19.50
2023-03-17T16:18:36.421Z,19.50
2023-03-17T16:21:05.576Z,19.40
2023-03-17T16:23:37.138Z,19.30
2023-03-17T16:26:14.695Z,19.20
2023-03-17T16:28:46.413Z,19.20
2023-03-17T16:31:34.809Z,19.10
2023-03-17T16:34:02.487Z,19.00
2023-03-17T16:36:30.180Z,19.00
2023-03-17T16:38:57.514Z,18.90
2023-03-17T16:41:27.469Z,18.80
2023-03-17T16:44:01.782Z,18.90
2023-03-17T16:46:35.505Z,18.70
2023-03-17T16:49:04.499Z,18.60
2023-03-17T16:51:32.278Z,18.60
2023-03-17T16:53:59.530Z,18.50
2023-03-17T16:56:28.994Z,18.40
2023-03-17T16:58:57.071Z,18.30
2023-03-17T17:01:28.260Z,18.30
2023-03-17T17:03:57.017Z,18.20
2023-03-17T17:06:25.269Z,18.20
2023-03-17T17:08:53.384Z,18.20
2023-03-17T17:11:21.289Z,18.10
2023-03-17T17:13:50.095Z,18.00
2023-03-17T17:16:32.340Z,18.00
2023-03-17T17:19:01.378Z,17.80
2023-03-17T17:21:30.111Z,17.80
2023-03-17T17:23:59.721Z,17.70
2023-03-17T17:26:27.214Z,17.70
2023-03-17T17:28:54.614Z,17.60
2023-03-17T17:31:22.044Z,17.60
2023-03-17T17:33:49.456Z,17.60
2023-03-17T17:36:18.226Z,17.50
2023-03-17T17:38:46.256Z,17.50
2023-03-17T17:41:15.195Z,17.40
2023-03-17T17:43:43.023Z,17.30
2023-03-17T17:46:22.398Z,17.30
2023-03-17T17:48:50.356Z,17.20
2023-03-17T17:51:20.215Z,17.10
2023-03-17T17:53:48.047Z,17.00
2023-03-17T17:56:22.197Z,17.00
2023-03-17T17:58:50.710Z,16.90
2023-03-17T18:01:22.336Z,16.90
2023-03-17T18:03:50.125Z,16.70
2023-03-17T18:06:18.140Z,16.60
2023-03-17T18:08:46.110Z,16.60
2023-03-17T18:11:13.550Z,16.60
2023-03-17T18:13:40.940Z,16.60
2023-03-17T18:16:09.939Z,16.50
2023-03-17T18:18:40.457Z,16.50
2023-03-17T18:21:08.151Z,16.40
2023-03-17T18:23:36.439Z,16.40
2023-03-17T18:26:06.344Z,16.40
2023-03-17T18:28:34.706Z,16.40
2023-03-17T18:31:20.997Z,16.30
2023-03-17T18:33:51.360Z,16.20
2023-03-17T18:36:20.022Z,16.20
2023-03-17T18:38:46.968Z,16.20
2023-03-17T18:41:17.259Z,16.20
2023-03-17T18:43:48.088Z,16.10
2023-03-17T18:46:16.702Z,16.10
2023-03-17T18:51:57.756Z,16.00
2023-03-17T18:54:29.109Z,16.00
2023-03-17T18:57:05.787Z,16.00
2023-03-17T18:59:36.540Z,16.00
2023-03-17T19:02:04.217Z,16.00
2023-03-17T19:04:32.185Z,16.00
2023-03-17T19:06:59.967Z,15.90
2023-03-17T19:09:28.082Z,15.90
2023-03-17T19:11:54.970Z,15.90
2023-03-17T19:14:22.495Z,15.90
2023-03-17T19:16:50.020Z,15.90
2023-03-17T19:19:17.843Z,15.90
2023-03-17T19:21:47.781Z,15.90
2023-03-17T19:24:17.616Z,15.90
2023-03-17T19:26:44.454Z,15.90
2023-03-17T19:29:12.584Z,15.90
2023-03-17T19:31:41.868Z,15.90
2023-03-17T19:34:12.678Z,15.90
2023-03-17T19:36:43.516Z,15.90
2023-03-17T19:39:12.132Z,15.90
2023-03-17T19:41:39.762Z,16.00
2023-03-17T19:44:09.820Z,16.00
2023-03-17T19:46:38.423Z,16.00
2023-03-17T19:49:06.817Z,16.00
2023-03-17T19:51:34.406Z,16.00
2023-03-17T19:54:02.317Z,16.00
2023-03-17T19:56:29.957Z,16.00
2023-03-17T19:58:57.753Z,16.10
2023-03-17T20:01:26.442Z,16.10
2023-03-17T20:03:54.234Z,16.10
2023-03-17T20:06:21.921Z,16.10
2023-03-17T20:08:49.985Z,16.10
2023-03-17T20:11:20.020Z,16.10
2023-03-17T20:13:47.928Z,16.10
2023-03-17T20:16:16.846Z,16.10
2023-03-17T20:18:44.220Z,16.10
2023-03-17T20:21:14.526Z,16.20
2023-03-17T20:23:41.875Z,16.30
2023-03-17T20:26:09.626Z,16.20
2023-03-17T20:28:38.911Z,16.20
2023-03-17T20:31:08.266Z,16.20
2023-03-17T20:33:36.323Z,16.20
2023-03-17T20:36:05.443Z,16.30
2023-03-17T20:38:38.083Z,16.20
2023-03-17T20:41:16.298Z,16.20
2023-03-17T20:43:47.412Z,16.20
2023-03-17T20:46:22.063Z,16.20
2023-03-17T20:48:51.874Z,16.20
2023-03-17T20:51:20.448Z,16.30
2023-03-17T20:53:50.530Z,16.30
2023-03-17T20:56:22.782Z,16.30
2023-03-17T20:58:53.696Z,16.30
2023-03-17T21:01:36.886Z,16.30
2023-03-17T21:04:09.367Z,16.30
2023-03-17T21:06:39.066Z,16.30
2023-03-17T21:09:07.006Z,16.30
2023-03-17T21:11:35.296Z,16.30
2023-03-17T21:14:04.546Z,16.20
2023-03-17T21:16:32.147Z,16.20
2023-03-17T21:19:00.229Z,16.20
2023-03-17T21:21:28.197Z,16.20
2023-03-17T21:23:56.691Z,16.20
2023-03-17T21:26:25.157Z,16.10
2023-03-17T21:28:52.739Z,16.20
2023-03-17T21:31:22.120Z,16.20
2023-03-17T21:33:50.902Z,16.10
2023-03-17T21:36:21.352Z,16.10
2023-03-17T21:38:48.843Z,16.10
2023-03-17T21:41:36.156Z,16.10
2023-03-17T21:44:05.576Z,16.10
2023-03-17T21:46:33.922Z,16.10
2023-03-17T21:49:02.220Z,16.10
2023-03-17T21:51:30.709Z,16.10
2023-03-17T21:53:58.263Z,16.00
2023-03-17T21:56:26.001Z,16.00
2023-03-17T21:58:56.452Z,16.00
2023-03-17T22:01:30.502Z,16.00
2023-03-17T22:04:00.068Z,16.00
2023-03-17T22:06:52.423Z,16.00
2023-03-17T22:09:21.023Z,15.90
2023-03-17T22:11:47.951Z,16.00
2023-03-17T22:14:23.675Z,15.90
2023-03-17T22:16:51.159Z,15.90
2023-03-17T22:19:32.584Z,15.90
2023-03-17T22:22:00.768Z,15.90
2023-03-17T22:24:28.438Z,15.80
2023-03-17T22:26:59.730Z,15.80
2023-03-17T22:29:27.366Z,15.80
2023-03-17T22:31:55.339Z,15.80
2023-03-17T22:34:23.736Z,15.80
2023-03-17T22:36:52.536Z,15.70
2023-03-17T22:39:20.341Z,15.70
2023-03-17T22:41:49.398Z,15.70
2023-03-17T22:44:18.047Z,15.70
2023-03-17T22:46:46.584Z,15.70
2023-03-17T22:49:14.173Z,15.70
2023-03-17T22:54:19.211Z,15.60
2023-03-17T22:59:34.272Z,15.60
2023-03-17T23:02:09.715Z,15.60
2023-03-17T23:04:38.433Z,15.50
2023-03-17T23:07:06.744Z,15.50
2023-03-17T23:09:34.986Z,15.60
2023-03-17T23:12:03.028Z,15.50
2023-03-17T23:14:30.788Z,15.50
2023-03-17T23:16:58.753Z,15.50
2023-03-17T23:22:08.246Z,15.40
2023-03-17T23:24:36.084Z,15.40
2023-03-17T23:27:04.096Z,15.40
2023-03-17T23:29:35.692Z,15.40
2023-03-17T23:32:15.034Z,15.30
2023-03-17T23:34:42.684Z,15.30
2023-03-17T23:37:27.385Z,15.30
2023-03-17T23:39:55.369Z,15.20
2023-03-17T23:45:05.683Z,15.20
2023-03-17T23:47:33.990Z,15.10
2023-03-17T23:50:04.413Z,15.10
2023-03-17T23:52:45.047Z,15.00
2023-03-17T23:55:14.726Z,15.00
2023-03-17T23:57:42.397Z,14.90
